createdAt,value
2023-05-18T00:00:36.600Z,87.45
2023-05-18T00:05:58.217Z,87.43
2023-05-18T00:11:06.930Z,87.50
2023-05-18T00:16:12.679Z,87.63
2023-05-18T00:21:16.706Z,87.73
2023-05-18T00:26:21.298Z,87.66
2023-05-18T00:31:27.139Z,87.83
2023-05-18T00:36:32.124Z,87.90
2023-05-18T00:41:36.880Z,88.09
2023-05-18T00:46:41.949Z,87.83
2023-05-18T00:51:46.410Z,87.83
2023-05-18T00:56:54.340Z,87.97
2023-05-18T01:02:05.242Z,88.24
2023-05-18T01:07:12.017Z,88.12
2023-05-18T01:12:24.697Z,88.38
2023-05-18T01:17:47.961Z,88.34
2023-05-18T01:23:24.108Z,88.38
2023-05-18T01:28:32.720Z,88.53
2023-05-18T01:33:36.847Z,88.56
2023-05-18T01:38:43.948Z,88.41
2023-05-18T01:44:34.216Z,88.54
2023-05-18T01:50:02.668Z,88.49
2023-05-18T01:55:07.801Z,88.47
2023-05-18T02:00:13.025Z,88.57
2023-05-18T02:05:23.827Z,88.65
2023-05-18T02:10:27.529Z,89.02
2023-05-18T02:15:31.722Z,89.13
2023-05-18T02:20:38.936Z,89.18
2023-05-18T02:25:44.856Z,88.99
2023-05-18T02:30:51.040Z,88.98
2023-05-18T02:35:54.863Z,89.10
2023-05-18T02:40:59.246Z,89.36
2023-05-18T02:46:06.205Z,89.52
2023-05-18T02:51:11.026Z,89.44
2023-05-18T02:56:15.233Z,89.50
2023-05-18T03:01:45.285Z,89.52
2023-05-18T03:06:53.437Z,89.47
2023-05-18T03:11:58.278Z,89.40
2023-05-18T03:17:06.284Z,89.49
2023-05-18T03:22:11.556Z,89.84
2023-05-18T03:27:16.921Z,89.98
2023-05-18T03:32:23.451Z,90.16
2023-05-18T03:37:27.732Z,90.16
2023-05-18T03:42:32.198Z,89.95
2023-05-18T03:47:40.222Z,89.77
2023-05-18T03:52:45.003Z,89.66
2023-05-18T03:57:49.846Z,89.80
2023-05-18T04:02:54.624Z,89.61
2023-05-18T04:08:01.311Z,89.76
2023-05-18T04:13:05.113Z,89.85
2023-05-18T04:18:10.897Z,90.02
2023-05-18T04:23:14.632Z,89.93
2023-05-18T04:28:19.662Z,89.98
2023-05-18T04:33:25.249Z,90.11
2023-05-18T04:38:35.197Z,89.71
2023-05-18T04:43:43.207Z,90.11
2023-05-18T04:48:53.275Z,89.96
2023-05-18T04:53:57.160Z,90.07
2023-05-18T04:59:02.804Z,89.91
2023-05-18T05:04:07.365Z,89.77
2023-05-18T05:09:14.324Z,89.37
2023-05-18T05:14:20.380Z,89.63
2023-05-18T05:19:24.315Z,89.44
2023-05-18T05:24:28.002Z,88.79
2023-05-18T05:29:31.796Z,88.66
2023-05-18T05:34:37.994Z,88.36
2023-05-18T05:39:42.515Z,88.06
2023-05-18T05:44:47.271Z,87.75
2023-05-18T05:49:51.368Z,87.49
2023-05-18T05:54:56.440Z,87.52
2023-05-18T06:00:00.741Z,86.59
2023-05-18T06:05:06.358Z,85.80
2023-05-18T06:10:10.297Z,85.49
2023-05-18T06:15:15.158Z,84.66
2023-05-18T06:20:18.861Z,83.50
2023-05-18T06:25:25.774Z,83.37
2023-05-18T06:30:44.635Z,82.83
2023-05-18T06:36:13.096Z,82.02
2023-05-18T06:41:17.276Z,82.39
2023-05-18T06:46:24.706Z,81.78
2023-05-18T06:51:32.701Z,80.52
2023-05-18T06:56:39.277Z,80.39
2023-05-18T07:01:43.079Z,80.10
2023-05-18T07:06:50.189Z,79.94
2023-05-18T07:11:53.938Z,79.62
2023-05-18T07:16:57.666Z,79.88
2023-05-18T07:22:01.525Z,77.43
2023-05-18T07:27:06.261Z,78.24
2023-05-18T07:32:09.985Z,75.64
2023-05-18T07:37:14.255Z,76.41
2023-05-18T07:42:18.094Z,76.40
2023-05-18T07:47:21.945Z,75.59
2023-05-18T07:52:26.145Z,74.61
2023-05-18T07:57:31.446Z,73.44
2023-05-18T08:02:35.149Z,73.61
2023-05-18T08:07:38.888Z,72.79
2023-05-18T08:12:43.415Z,73.64
2023-05-18T08:17:47.761Z,73.82
2023-05-18T08:22:51.691Z,71.89
2023-05-18T08:27:55.302Z,72.25
2023-05-18T08:32:59.338Z,71.81
2023-05-18T08:38:05.394Z,71.14
2023-05-18T08:43:19.653Z,69.23
2023-05-18T08:48:27.220Z,68.92
2023-05-18T08:53:34.027Z,68.78
2023-05-18T08:58:45.012Z,69.83
2023-05-18T09:03:51.578Z,68.12
2023-05-18T09:09:04.589Z,67.60
2023-05-18T09:14:08.581Z,68.53
2023-05-18T09:19:12.342Z,67.41
2023-05-18T09:24:16.632Z,66.15
2023-05-18T09:29:22.113Z,67.50
2023-05-18T09:34:25.828Z,67.07
2023-05-18T09:39:29.534Z,66.46
2023-05-18T09:44:36.406Z,66.24
2023-05-18T09:49:41.144Z,65.83
2023-05-18T09:54:44.861Z,65.85
2023-05-18T09:59:59.177Z,64.96
2023-05-18T10:05:03.126Z,64.27
2023-05-18T10:10:09.098Z,63.76
2023-05-18T10:15:18.057Z,64.59
2023-05-18T10:20:24.872Z,64.21
2023-05-18T10:25:29.818Z,63.16
2023-05-18T10:30:34.764Z,63.06
2023-05-18T10:35:39.569Z,62.14
2023-05-18T10:40:44.454Z,61.82
2023-05-18T10:45:53.052Z,61.06
2023-05-18T10:50:58.350Z,60.89
2023-05-18T10:56:03.808Z,60.06
2023-05-18T11:01:10.180Z,60.45
2023-05-18T11:06:15.367Z,59.23
2023-05-18T11:11:24.761Z,59.46
2023-05-18T11:16:36.204Z,60.06
2023-05-18T11:21:42.081Z,58.84
2023-05-18T11:26:50.183Z,58.78
2023-05-18T11:31:56.129Z,58.50
2023-05-18T11:37:01.765Z,57.83
2023-05-18T11:42:14.871Z,57.92
2023-05-18T11:47:19.175Z,57.67
2023-05-18T11:52:24.441Z,57.29
2023-05-18T11:57:34.428Z,57.87
2023-05-18T12:02:46.627Z,57.48
2023-05-18T12:07:56.840Z,57.36
2023-05-18T12:13:01.528Z,55.58
2023-05-18T12:18:11.469Z,54.32
2023-05-18T12:23:15.742Z,54.54
2023-05-18T12:28:19.473Z,54.32
2023-05-18T12:33:23.237Z,54.11
2023-05-18T12:38:29.695Z,53.53
2023-05-18T12:43:39.494Z,53.49
2023-05-18T12:48:49.503Z,51.63
2023-05-18T12:53:53.174Z,52.17
2023-05-18T12:59:03.362Z,52.05
2023-05-18T13:04:12.130Z,51.14
2023-05-18T13:09:17.236Z,51.90
2023-05-18T13:14:31.207Z,51.54
2023-05-18T13:19:37.861Z,50.01
2023-05-18T13:24:43.204Z,49.55
2023-05-18T13:29:47.169Z,49.22
2023-05-18T13:34:52.786Z,49.44
2023-05-18T13:40:03.166Z,50.20
2023-05-18T13:45:08.388Z,50.08
2023-05-18T13:50:12.889Z,49.42
2023-05-18T13:55:16.766Z,48.73
2023-05-18T14:00:21.123Z,48.93
2023-05-18T14:05:25.508Z,48.93
2023-05-18T14:10:29.792Z,48.83
2023-05-18T14:15:33.623Z,48.30
2023-05-18T14:20:38.290Z,48.44
2023-05-18T14:25:43.980Z,48.13
2023-05-18T14:30:47.720Z,48.00
2023-05-18T14:35:51.615Z,48.26
2023-05-18T14:40:55.359Z,47.82
2023-05-18T14:46:08.100Z,46.95
2023-05-18T14:51:13.819Z,47.21
2023-05-18T14:56:17.624Z,47.31
2023-05-18T15:01:21.638Z,47.33
2023-05-18T15:06:26.625Z,46.51
2023-05-18T15:11:30.322Z,47.17
2023-05-18T15:16:34.328Z,46.76
2023-05-18T15:21:40.493Z,46.55
2023-05-18T15:26:45.003Z,46.23
2023-05-18T15:31:53.074Z,46.69
2023-05-18T15:36:57.121Z,46.13
2023-05-18T15:42:05.290Z,45.79
2023-05-18T15:47:09.093Z,45.80
2023-05-18T15:52:12.880Z,46.26
2023-05-18T15:57:16.622Z,46.05
2023-05-18T16:02:20.367Z,46.91
2023-05-18T16:07:24.799Z,46.41
2023-05-18T16:12:28.393Z,46.24
2023-05-18T16:17:32.611Z,46.20
2023-05-18T16:22:36.244Z,46.41
2023-05-18T16:27:39.874Z,46.47
2023-05-18T16:32:44.770Z,46.79
2023-05-18T16:37:48.407Z,46.95
2023-05-18T16:42:52.167Z,46.43
2023-05-18T16:47:56.046Z,46.50
2023-05-18T16:52:59.765Z,46.06
2023-05-18T16:58:04.396Z,45.14
2023-05-18T17:03:11.341Z,45.38
2023-05-18T17:08:15.414Z,45.66
2023-05-18T17:13:19.140Z,45.89
2023-05-18T17:18:22.818Z,45.53
2023-05-18T17:23:26.499Z,44.88
2023-05-18T17:28:30.340Z,44.68
2023-05-18T17:33:34.245Z,44.94
2023-05-18T17:38:38.484Z,44.95
2023-05-18T17:43:42.442Z,45.63
2023-05-18T17:48:49.320Z,45.65
2023-05-18T17:53:53.251Z,45.97
2023-05-18T17:58:59.022Z,46.32
2023-05-18T18:04:03.037Z,46.99
2023-05-18T18:09:07.241Z,47.19
2023-05-18T18:14:15.798Z,47.61
2023-05-18T18:19:20.495Z,48.06
2023-05-18T18:24:24.805Z,48.54
2023-05-18T18:29:30.949Z,48.97
2023-05-18T18:34:41.335Z,49.29
2023-05-18T18:39:45.147Z,49.79
2023-05-18T18:44:49.777Z,50.18
2023-05-18T18:49:53.729Z,50.67
2023-05-18T18:54:58.782Z,51.23
2023-05-18T19:00:02.676Z,51.82
2023-05-18T19:05:11.413Z,52.21
2023-05-18T19:10:15.917Z,52.82
2023-05-18T19:15:22.707Z,53.36
2023-05-18T19:20:27.105Z,53.61
2023-05-18T19:25:32.303Z,54.12
2023-05-18T19:30:36.946Z,54.70
2023-05-18T19:35:40.958Z,55.03
2023-05-18T19:40:44.771Z,55.38
2023-05-18T19:45:50.473Z,55.92
2023-05-18T19:50:54.803Z,56.34
2023-05-18T19:56:00.068Z,56.66
2023-05-18T20:01:04.753Z,57.04
2023-05-18T20:06:08.592Z,57.55
2023-05-18T20:11:12.621Z,58.07
2023-05-18T20:16:20.688Z,58.58
2023-05-18T20:21:25.769Z,59.07
2023-05-18T20:26:31.946Z,59.50
2023-05-18T20:31:37.613Z,60.23
2023-05-18T20:36:41.580Z,60.77
2023-05-18T20:41:45.222Z,61.42
2023-05-18T20:46:53.365Z,61.90
2023-05-18T20:51:57.218Z,62.55
2023-05-18T20:57:01.184Z,63.25
2023-05-18T21:02:05.262Z,64.03
2023-05-18T21:07:10.285Z,64.17
2023-05-18T21:12:14.154Z,64.57
2023-05-18T21:17:18.550Z,64.95
2023-05-18T21:22:22.537Z,65.32
2023-05-18T21:27:27.265Z,65.77
2023-05-18T21:32:31.572Z,66.26
2023-05-18T21:37:35.487Z,66.74
2023-05-18T21:42:45.375Z,67.25
2023-05-18T21:47:51.073Z,67.67
2023-05-18T21:52:55.535Z,67.88
2023-05-18T21:57:59.904Z,68.47
2023-05-18T22:03:05.557Z,68.96
2023-05-18T22:08:09.879Z,69.46
2023-05-18T22:13:13.559Z,69.59
2023-05-18T22:18:19.606Z,70.00
2023-05-18T22:23:23.779Z,70.18
2023-05-18T22:28:28.585Z,70.75
2023-05-18T22:33:32.315Z,71.01
2023-05-18T22:38:36.198Z,71.23
2023-05-18T22:43:40.754Z,71.66
2023-05-18T22:48:45.965Z,71.92
2023-05-18T22:53:49.687Z,72.23
2023-05-18T22:58:53.845Z,72.54
2023-05-18T23:03:59.540Z,72.97
2023-05-18T23:09:04.319Z,73.29
2023-05-18T23:14:08.878Z,73.43
2023-05-18T23:19:15.226Z,73.87
2023-05-18T23:24:19.326Z,74.39
2023-05-18T23:29:22.956Z,74.59
2023-05-18T23:34:27.830Z,75.10
2023-05-18T23:39:33.046Z,75.52
2023-05-18T23:44:37.547Z,75.69
2023-05-18T23:49:41.489Z,75.92
2023-05-18T23:54:50.701Z,76.23
2023-05-18T23:59:55.803Z,76.51
